Summitville, Colorado
Current Conditions -  °F | °C
As of 9:10 AM on Saturday 25 Oct 2014 (Local Time) from KRCV Reporting Station
Clear Clear  
Wind Chill: 43°   Ceiling: Unl
Heat Index: 48°   Visibility: 10mi
Dew Point: 28°   Wind: 13mph
Humidity: 46%   Direction: 260°W
Pressure: 30.47"   Gusts: NA
Location:  37.6359°N, 106.449°W
Report Text: KRCV 251510Z AUTO 26011KT 10SM CLR 09/M02 A3047 RMK AO2 T00891021
Loading
Personal Weather Stations






























Interactive Weather Map New forecast layout! Learn more

10-Day Weather Forecast

Advertisements
Track Severe Weather on mobile